sensor_id;sensor_type;location;lat;lon;timestamp;P1;durP1;ratioP1;P2;durP2;ratioP2
8572;SDS011;4324;42.012;24.872;2023-06-10T00:00:08;7.60;;;5.20;;
8572;SDS011;4324;42.012;24.872;2023-06-10T00:02:37;5.80;;;5.20;;
8572;SDS011;4324;42.012;24.872;2023-06-10T00:05:04;5.70;;;5.20;;
8572;SDS011;4324;42.012;24.872;2023-06-10T00:07:33;5.70;;;5.30;;
8572;SDS011;4324;42.012;24.872;2023-06-10T00:10:03;5.73;;;5.27;;
8572;SDS011;4324;42.012;24.872;2023-06-10T00:12:32;5.80;;;5.30;;
8572;SDS011;4324;42.012;24.872;2023-06-10T00:15:02;6.27;;;5.60;;
8572;SDS011;4324;42.012;24.872;2023-06-10T00:17:29;5.87;;;5.27;;
8572;SDS011;4324;42.012;24.872;2023-06-10T00:19:57;6.10;;;5.50;;
8572;SDS011;4324;42.012;24.872;2023-06-10T00:22:24;6.77;;;6.17;;
8572;SDS011;4324;42.012;24.872;2023-06-10T00:24:54;5.33;;;4.83;;
8572;SDS011;4324;42.012;24.872;2023-06-10T00:27:22;6.00;;;5.40;;
8572;SDS011;4324;42.012;24.872;2023-06-10T00:29:50;5.43;;;5.03;;
8572;SDS011;4324;42.012;24.872;2023-06-10T00:32:17;5.67;;;5.17;;
8572;SDS011;4324;42.012;24.872;2023-06-10T00:34:43;5.77;;;5.27;;
8572;SDS011;4324;42.012;24.872;2023-06-10T00:37:10;6.00;;;5.40;;
8572;SDS011;4324;42.012;24.872;2023-06-10T00:39:37;6.10;;;5.50;;
8572;SDS011;4324;42.012;24.872;2023-06-10T00:42:04;5.57;;;4.97;;
8572;SDS011;4324;42.012;24.872;2023-06-10T00:44:32;5.87;;;5.30;;
8572;SDS011;4324;42.012;24.872;2023-06-10T00:47:00;6.07;;;5.53;;
8572;SDS011;4324;42.012;24.872;2023-06-10T00:49:28;5.80;;;4.73;;
8572;SDS011;4324;42.012;24.872;2023-06-10T00:51:55;6.20;;;5.70;;
8572;SDS011;4324;42.012;24.872;2023-06-10T00:54:22;5.77;;;5.27;;
8572;SDS011;4324;42.012;24.872;2023-06-10T00:56:49;6.10;;;5.60;;
8572;SDS011;4324;42.012;24.872;2023-06-10T00:59:16;6.10;;;5.50;;
8572;SDS011;4324;42.012;24.872;2023-06-10T01:01:43;5.70;;;5.30;;
8572;SDS011;4324;42.012;24.872;2023-06-10T01:04:13;5.90;;;5.33;;
8572;SDS011;4324;42.012;24.872;2023-06-10T01:06:46;5.97;;;5.40;;
8572;SDS011;4324;42.012;24.872;2023-06-10T01:09:23;5.80;;;5.30;;
8572;SDS011;4324;42.012;24.872;2023-06-10T01:11:58;6.40;;;5.80;;
8572;SDS011;4324;42.012;24.872;2023-06-10T01:14:35;5.53;;;5.10;;
8572;SDS011;4324;42.012;24.872;2023-06-10T01:17:03;5.87;;;5.37;;
8572;SDS011;4324;42.012;24.872;2023-06-10T01:19:32;6.17;;;5.57;;
8572;SDS011;4324;42.012;24.872;2023-06-10T01:22:03;5.83;;;5.30;;
8572;SDS011;4324;42.012;24.872;2023-06-10T01:24:30;6.57;;;5.97;;
8572;SDS011;4324;42.012;24.872;2023-06-10T01:26:59;8.50;;;5.77;;
8572;SDS011;4324;42.012;24.872;2023-06-10T01:29:28;7.63;;;5.27;;
8572;SDS011;4324;42.012;24.872;2023-06-10T01:32:04;6.13;;;5.53;;
8572;SDS011;4324;42.012;24.872;2023-06-10T01:34:34;6.17;;;5.57;;
8572;SDS011;4324;42.012;24.872;2023-06-10T01:37:04;5.80;;;5.30;;
8572;SDS011;4324;42.012;24.872;2023-06-10T01:39:32;6.73;;;5.93;;
8572;SDS011;4324;42.012;24.872;2023-06-10T01:41:59;5.67;;;5.23;;
8572;SDS011;4324;42.012;24.872;2023-06-10T01:44:27;5.70;;;5.20;;
8572;SDS011;4324;42.012;24.872;2023-06-10T01:46:54;7.40;;;6.70;;
8572;SDS011;4324;42.012;24.872;2023-06-10T01:49:21;5.47;;;5.03;;
8572;SDS011;4324;42.012;24.872;2023-06-10T01:51:49;6.30;;;5.70;;
8572;SDS011;4324;42.012;24.872;2023-06-10T01:54:17;8.63;;;5.33;;
8572;SDS011;4324;42.012;24.872;2023-06-10T01:56:44;6.97;;;5.60;;
8572;SDS011;4324;42.012;24.872;2023-06-10T01:59:11;6.27;;;5.63;;
8572;SDS011;4324;42.012;24.872;2023-06-10T02:01:37;6.43;;;5.83;;
8572;SDS011;4324;42.012;24.872;2023-06-10T02:04:04;6.13;;;5.57;;
8572;SDS011;4324;42.012;24.872;2023-06-10T02:06:31;6.07;;;5.57;;
8572;SDS011;4324;42.012;24.872;2023-06-10T02:08:59;5.57;;;5.17;;
8572;SDS011;4324;42.012;24.872;2023-06-10T02:11:28;6.70;;;5.60;;
8572;SDS011;4324;42.012;24.872;2023-06-10T02:13:54;6.00;;;5.50;;
8572;SDS011;4324;42.012;24.872;2023-06-10T02:16:21;6.47;;;5.73;;
8572;SDS011;4324;42.012;24.872;2023-06-10T02:18:49;5.80;;;5.30;;
8572;SDS011;4324;42.012;24.872;2023-06-10T02:21:16;6.57;;;5.97;;
8572;SDS011;4324;42.012;24.872;2023-06-10T02:23:42;6.57;;;5.90;;
8572;SDS011;4324;42.012;24.872;2023-06-10T02:26:09;7.43;;;6.33;;
8572;SDS011;4324;42.012;24.872;2023-06-10T02:28:38;8.27;;;6.53;;
8572;SDS011;4324;42.012;24.872;2023-06-10T02:31:08;5.97;;;5.50;;
8572;SDS011;4324;42.012;24.872;2023-06-10T02:33:35;6.80;;;6.13;;
8572;SDS011;4324;42.012;24.872;2023-06-10T02:36:05;6.40;;;5.80;;
8572;SDS011;4324;42.012;24.872;2023-06-10T02:38:32;6.40;;;5.80;;
8572;SDS011;4324;42.012;24.872;2023-06-10T02:40:59;6.37;;;5.80;;
8572;SDS011;4324;42.012;24.872;2023-06-10T02:43:26;6.40;;;5.57;;
8572;SDS011;4324;42.012;24.872;2023-06-10T02:45:54;7.63;;;5.87;;
8572;SDS011;4324;42.012;24.872;2023-06-10T02:48:23;6.33;;;5.73;;
8572;SDS011;4324;42.012;24.872;2023-06-10T02:50:50;6.03;;;5.50;;
8572;SDS011;4324;42.012;24.872;2023-06-10T02:53:17;5.83;;;5.33;;
8572;SDS011;4324;42.012;24.872;2023-06-10T02:55:44;6.20;;;5.27;;
8572;SDS011;4324;42.012;24.872;2023-06-10T02:58:10;6.33;;;5.73;;
8572;SDS011;4324;42.012;24.872;2023-06-10T03:00:37;5.57;;;5.17;;
8572;SDS011;4324;42.012;24.872;2023-06-10T03:03:07;5.93;;;5.43;;
8572;SDS011;4324;42.012;24.872;2023-06-10T03:05:35;6.13;;;5.53;;
8572;SDS011;4324;42.012;24.872;2023-06-10T03:08:02;5.77;;;5.27;;
8572;SDS011;4324;42.012;24.872;2023-06-10T03:10:29;5.70;;;5.20;;
8572;SDS011;4324;42.012;24.872;2023-06-10T03:12:58;6.00;;;5.40;;
8572;SDS011;4324;42.012;24.872;2023-06-10T03:15:25;7.40;;;5.57;;
8572;SDS011;4324;42.012;24.872;2023-06-10T03:17:54;7.37;;;5.27;;
8572;SDS011;4324;42.012;24.872;2023-06-10T03:20:22;11.83;;;5.93;;
8572;SDS011;4324;42.012;24.872;2023-06-10T03:22:50;5.70;;;5.20;;
8572;SDS011;4324;42.012;24.872;2023-06-10T03:25:17;6.93;;;5.93;;
8572;SDS011;4324;42.012;24.872;2023-06-10T03:27:46;5.67;;;5.17;;
8572;SDS011;4324;42.012;24.872;2023-06-10T03:30:13;8.83;;;5.80;;
8572;SDS011;4324;42.012;24.872;2023-06-10T03:32:40;5.87;;;5.37;;
8572;SDS011;4324;42.012;24.872;2023-06-10T03:35:07;5.63;;;5.23;;
8572;SDS011;4324;42.012;24.872;2023-06-10T03:37:36;7.13;;;5.60;;
8572;SDS011;4324;42.012;24.872;2023-06-10T03:40:03;7.17;;;5.97;;
8572;SDS011;4324;42.012;24.872;2023-06-10T03:42:31;6.07;;;5.57;;
8572;SDS011;4324;42.012;24.872;2023-06-10T03:44:57;5.60;;;5.10;;
8572;SDS011;4324;42.012;24.872;2023-06-10T03:47:24;5.60;;;5.10;;
8572;SDS011;4324;42.012;24.872;2023-06-10T03:49:51;6.10;;;5.50;;
8572;SDS011;4324;42.012;24.872;2023-06-10T03:52:19;6.17;;;5.57;;
8572;SDS011;4324;42.012;24.872;2023-06-10T03:54:47;6.00;;;5.47;;
8572;SDS011;4324;42.012;24.872;2023-06-10T03:57:14;5.97;;;5.33;;
8572;SDS011;4324;42.012;24.872;2023-06-10T03:59:41;6.23;;;5.33;;
8572;SDS011;4324;42.012;24.872;2023-06-10T04:02:07;6.07;;;5.20;;
8572;SDS011;4324;42.012;24.872;2023-06-10T04:04:34;5.70;;;5.20;;
8572;SDS011;4324;42.012;24.872;2023-06-10T04:07:03;7.00;;;5.20;;
8572;SDS011;4324;42.012;24.872;2023-06-10T04:09:30;5.90;;;5.40;;
8572;SDS011;4324;42.012;24.872;2023-06-10T04:11:58;5.80;;;5.30;;
8572;SDS011;4324;42.012;24.872;2023-06-10T04:14:25;5.90;;;5.40;;
8572;SDS011;4324;42.012;24.872;2023-06-10T04:16:53;6.30;;;5.50;;
8572;SDS011;4324;42.012;24.872;2023-06-10T04:19:19;6.00;;;5.50;;
8572;SDS011;4324;42.012;24.872;2023-06-10T04:21:46;6.00;;;5.50;;
8572;SDS011;4324;42.012;24.872;2023-06-10T04:24:13;6.00;;;5.43;;
8572;SDS011;4324;42.012;24.872;2023-06-10T04:26:40;7.70;;;5.40;;
8572;SDS011;4324;42.012;24.872;2023-06-10T04:29:09;6.30;;;5.33;;
8572;SDS011;4324;42.012;24.872;2023-06-10T04:31:36;9.73;;;5.67;;
8572;SDS011;4324;42.012;24.872;2023-06-10T04:34:03;5.80;;;5.30;;
8572;SDS011;4324;42.012;24.872;2023-06-10T04:36:30;6.53;;;5.43;;
8572;SDS011;4324;42.012;24.872;2023-06-10T04:38:57;5.73;;;5.10;;
8572;SDS011;4324;42.012;24.872;2023-06-10T04:41:24;6.10;;;4.97;;
8572;SDS011;4324;42.012;24.872;2023-06-10T04:43:52;5.40;;;5.00;;
8572;SDS011;4324;42.012;24.872;2023-06-10T04:46:20;6.20;;;5.70;;
8572;SDS011;4324;42.012;24.872;2023-06-10T04:48:47;6.00;;;5.50;;
8572;SDS011;4324;42.012;24.872;2023-06-10T04:51:14;5.67;;;5.17;;
8572;SDS011;4324;42.012;24.872;2023-06-10T04:53:41;6.43;;;5.03;;
8572;SDS011;4324;42.012;24.872;2023-06-10T04:56:09;5.57;;;5.10;;
8572;SDS011;4324;42.012;24.872;2023-06-10T04:58:35;7.33;;;5.07;;
8572;SDS011;4324;42.012;24.872;2023-06-10T05:01:02;5.33;;;4.93;;
8572;SDS011;4324;42.012;24.872;2023-06-10T05:03:31;5.50;;;5.00;;
8572;SDS011;4324;42.012;24.872;2023-06-10T05:05:57;7.10;;;5.43;;
8572;SDS011;4324;42.012;24.872;2023-06-10T05:08:24;7.93;;;5.57;;
8572;SDS011;4324;42.012;24.872;2023-06-10T05:10:51;5.93;;;5.23;;
8572;SDS011;4324;42.012;24.872;2023-06-10T05:13:18;6.63;;;5.67;;
8572;SDS011;4324;42.012;24.872;2023-06-10T05:15:48;6.00;;;4.90;;
8572;SDS011;4324;42.012;24.872;2023-06-10T05:22:24;6.10;;;5.50;;
8572;SDS011;4324;42.012;24.872;2023-06-10T05:24:58;6.30;;;5.70;;
8572;SDS011;4324;42.012;24.872;2023-06-10T05:28:08;5.93;;;5.40;;
8572;SDS011;4324;42.012;24.872;2023-06-10T05:30:38;5.60;;;5.20;;
8572;SDS011;4324;42.012;24.872;2023-06-10T05:33:05;6.23;;;5.63;;
8572;SDS011;4324;42.012;24.872;2023-06-10T05:35:32;7.90;;;6.17;;
8572;SDS011;4324;42.012;24.872;2023-06-10T05:38:02;7.47;;;5.80;;
8572;SDS011;4324;42.012;24.872;2023-06-10T05:40:29;7.43;;;6.30;;
8572;SDS011;4324;42.012;24.872;2023-06-10T05:43:01;6.90;;;6.20;;
8572;SDS011;4324;42.012;24.872;2023-06-10T05:45:28;8.60;;;7.80;;
8572;SDS011;4324;42.012;24.872;2023-06-10T05:51:00;5.87;;;5.37;;
8572;SDS011;4324;42.012;24.872;2023-06-10T05:53:41;6.80;;;6.00;;
8572;SDS011;4324;42.012;24.872;2023-06-10T05:56:08;7.47;;;6.87;;
8572;SDS011;4324;42.012;24.872;2023-06-10T05:58:35;7.50;;;6.80;;
8572;SDS011;4324;42.012;24.872;2023-06-10T06:01:02;7.07;;;6.00;;
8572;SDS011;4324;42.012;24.872;2023-06-10T06:03:32;9.37;;;6.20;;
8572;SDS011;4324;42.012;24.872;2023-06-10T06:05:59;8.27;;;7.57;;
8572;SDS011;4324;42.012;24.872;2023-06-10T06:08:26;6.70;;;6.20;;
8572;SDS011;4324;42.012;24.872;2023-06-10T06:10:54;8.17;;;7.37;;
8572;SDS011;4324;42.012;24.872;2023-06-10T06:13:21;8.30;;;6.67;;
8572;SDS011;4324;42.012;24.872;2023-06-10T06:15:48;7.90;;;6.97;;
8572;SDS011;4324;42.012;24.872;2023-06-10T06:18:16;7.23;;;6.23;;
8572;SDS011;4324;42.012;24.872;2023-06-10T06:20:43;6.87;;;6.17;;
8572;SDS011;4324;42.012;24.872;2023-06-10T06:23:10;6.70;;;6.20;;
8572;SDS011;4324;42.012;24.872;2023-06-10T06:25:37;6.10;;;5.50;;
8572;SDS011;4324;42.012;24.872;2023-06-10T06:28:06;6.63;;;6.00;;
8572;SDS011;4324;42.012;24.872;2023-06-10T06:30:34;8.03;;;7.23;;
8572;SDS011;4324;42.012;24.872;2023-06-10T06:33:04;6.30;;;5.77;;
8572;SDS011;4324;42.012;24.872;2023-06-10T06:35:31;6.80;;;6.10;;
8572;SDS011;4324;42.012;24.872;2023-06-10T06:37:59;7.13;;;5.80;;
8572;SDS011;4324;42.012;24.872;2023-06-10T06:40:50;9.60;;;8.60;;
8572;SDS011;4324;42.012;24.872;2023-06-10T06:43:18;9.03;;;8.17;;
8572;SDS011;4324;42.012;24.872;2023-06-10T06:45:45;9.23;;;7.83;;
8572;SDS011;4324;42.012;24.872;2023-06-10T06:48:12;11.60;;;9.97;;
8572;SDS011;4324;42.012;24.872;2023-06-10T06:50:39;8.60;;;7.60;;
8572;SDS011;4324;42.012;24.872;2023-06-10T06:53:07;9.50;;;7.87;;
8572;SDS011;4324;42.012;24.872;2023-06-10T06:55:33;9.37;;;8.47;;
8572;SDS011;4324;42.012;24.872;2023-06-10T06:58:00;14.73;;;11.80;;
8572;SDS011;4324;42.012;24.872;2023-06-10T07:00:30;18.00;;;16.03;;
8572;SDS011;4324;42.012;24.872;2023-06-10T07:02:57;12.23;;;10.83;;
8572;SDS011;4324;42.012;24.872;2023-06-10T07:05:24;12.70;;;10.90;;
8572;SDS011;4324;42.012;24.872;2023-06-10T07:07:52;14.73;;;12.90;;
8572;SDS011;4324;42.012;24.872;2023-06-10T07:13:15;13.37;;;10.90;;
8572;SDS011;4324;42.012;24.872;2023-06-10T07:15:44;11.10;;;10.00;;
8572;SDS011;4324;42.012;24.872;2023-06-10T07:18:11;11.33;;;9.87;;
8572;SDS011;4324;42.012;24.872;2023-06-10T07:20:37;16.43;;;14.80;;
8572;SDS011;4324;42.012;24.872;2023-06-10T07:23:04;21.90;;;18.40;;
8572;SDS011;4324;42.012;24.872;2023-06-10T07:25:31;13.20;;;11.03;;
8572;SDS011;4324;42.012;24.872;2023-06-10T07:27:58;10.83;;;9.83;;
8572;SDS011;4324;42.012;24.872;2023-06-10T07:30:25;11.20;;;9.80;;
8572;SDS011;4324;42.012;24.872;2023-06-10T07:32:53;9.83;;;9.03;;
8572;SDS011;4324;42.012;24.872;2023-06-10T07:35:21;9.20;;;8.30;;
8572;SDS011;4324;42.012;24.872;2023-06-10T07:37:47;10.27;;;9.13;;
8572;SDS011;4324;42.012;24.872;2023-06-10T07:40:14;9.60;;;8.50;;
8572;SDS011;4324;42.012;24.872;2023-06-10T07:42:41;12.37;;;10.60;;
8572;SDS011;4324;42.012;24.872;2023-06-10T07:45:08;11.53;;;9.87;;
8572;SDS011;4324;42.012;24.872;2023-06-10T07:47:35;18.53;;;16.47;;
8572;SDS011;4324;42.012;24.872;2023-06-10T07:50:04;12.17;;;9.30;;
8572;SDS011;4324;42.012;24.872;2023-06-10T07:52:31;12.27;;;8.97;;
8572;SDS011;4324;42.012;24.872;2023-06-10T07:55:02;16.27;;;14.53;;
8572;SDS011;4324;42.012;24.872;2023-06-10T07:57:36;10.03;;;9.10;;
8572;SDS011;4324;42.012;24.872;2023-06-10T08:00:16;9.17;;;8.37;;
8572;SDS011;4324;42.012;24.872;2023-06-10T08:02:43;9.33;;;8.50;;
8572;SDS011;4324;42.012;24.872;2023-06-10T08:05:12;8.53;;;7.73;;
8572;SDS011;4324;42.012;24.872;2023-06-10T08:07:39;9.60;;;8.80;;
8572;SDS011;4324;42.012;24.872;2023-06-10T08:10:07;10.33;;;9.23;;
8572;SDS011;4324;42.012;24.872;2023-06-10T08:12:36;12.57;;;11.37;;
8572;SDS011;4324;42.012;24.872;2023-06-10T08:15:10;10.63;;;9.37;;
8572;SDS011;4324;42.012;24.872;2023-06-10T08:18:08;17.77;;;15.93;;
8572;SDS011;4324;42.012;24.872;2023-06-10T08:20:41;10.67;;;9.63;;
8572;SDS011;4324;42.012;24.872;2023-06-10T08:23:08;12.07;;;8.63;;
8572;SDS011;4324;42.012;24.872;2023-06-10T08:25:40;11.63;;;9.60;;
8572;SDS011;4324;42.012;24.872;2023-06-10T08:28:18;9.23;;;8.33;;
8572;SDS011;4324;42.012;24.872;2023-06-10T08:30:55;12.87;;;11.63;;
8572;SDS011;4324;42.012;24.872;2023-06-10T08:33:26;10.70;;;9.07;;
8572;SDS011;4324;42.012;24.872;2023-06-10T08:36:07;11.68;;;7.80;;
8572;SDS011;4324;42.012;24.872;2023-06-10T08:41:43;9.60;;;7.83;;
8572;SDS011;4324;42.012;24.872;2023-06-10T08:44:26;9.32;;;7.93;;
8572;SDS011;4324;42.012;24.872;2023-06-10T08:46:55;10.60;;;8.03;;
8572;SDS011;4324;42.012;24.872;2023-06-10T08:49:26;9.95;;;7.88;;
8572;SDS011;4324;42.012;24.872;2023-06-10T08:51:57;11.98;;;9.00;;
8572;SDS011;4324;42.012;24.872;2023-06-10T08:54:28;8.82;;;8.13;;
8572;SDS011;4324;42.012;24.872;2023-06-10T08:56:59;9.75;;;8.32;;
8572;SDS011;4324;42.012;24.872;2023-06-10T08:59:36;9.80;;;8.70;;
8572;SDS011;4324;42.012;24.872;2023-06-10T09:03:19;8.93;;;8.13;;
8572;SDS011;4324;42.012;24.872;2023-06-10T09:05:52;7.88;;;7.18;;
8572;SDS011;4324;42.012;24.872;2023-06-10T09:08:35;7.22;;;6.63;;
8572;SDS011;4324;42.012;24.872;2023-06-10T09:11:03;6.93;;;6.18;;
8572;SDS011;4324;42.012;24.872;2023-06-10T09:13:56;9.60;;;8.15;;
8572;SDS011;4324;42.012;24.872;2023-06-10T09:16:26;6.68;;;5.93;;
8572;SDS011;4324;42.012;24.872;2023-06-10T09:18:54;6.93;;;6.28;;
8572;SDS011;4324;42.012;24.872;2023-06-10T09:21:22;6.53;;;6.03;;
8572;SDS011;4324;42.012;24.872;2023-06-10T09:23:50;8.82;;;6.18;;
8572;SDS011;4324;42.012;24.872;2023-06-10T09:26:17;8.18;;;7.32;;
8572;SDS011;4324;42.012;24.872;2023-06-10T09:28:47;7.25;;;6.45;;
8572;SDS011;4324;42.012;24.872;2023-06-10T09:31:15;8.93;;;8.13;;
8572;SDS011;4324;42.012;24.872;2023-06-10T09:33:44;20.52;;;18.65;;
8572;SDS011;4324;42.012;24.872;2023-06-10T09:36:11;8.20;;;7.50;;
8572;SDS011;4324;42.012;24.872;2023-06-10T09:38:49;9.75;;;8.75;;
8572;SDS011;4324;42.012;24.872;2023-06-10T09:41:17;9.07;;;8.15;;
8572;SDS011;4324;42.012;24.872;2023-06-10T09:43:44;9.00;;;8.10;;
8572;SDS011;4324;42.012;24.872;2023-06-10T09:46:15;6.53;;;5.93;;
8572;SDS011;4324;42.012;24.872;2023-06-10T09:49:05;7.63;;;7.03;;
8572;SDS011;4324;42.012;24.872;2023-06-10T09:51:32;7.95;;;7.15;;
8572;SDS011;4324;42.012;24.872;2023-06-10T09:54:00;8.73;;;8.02;;
8572;SDS011;4324;42.012;24.872;2023-06-10T09:56:32;9.40;;;8.50;;
8572;SDS011;4324;42.012;24.872;2023-06-10T09:59:00;7.55;;;6.80;;
8572;SDS011;4324;42.012;24.872;2023-06-10T10:01:30;8.35;;;7.07;;
8572;SDS011;4324;42.012;24.872;2023-06-10T10:03:58;7.53;;;6.50;;
8572;SDS011;4324;42.012;24.872;2023-06-10T10:06:25;7.22;;;6.63;;
8572;SDS011;4324;42.012;24.872;2023-06-10T10:08:54;8.07;;;7.28;;
8572;SDS011;4324;42.012;24.872;2023-06-10T10:11:22;7.57;;;6.97;;
8572;SDS011;4324;42.012;24.872;2023-06-10T10:13:59;8.43;;;7.72;;
8572;SDS011;4324;42.012;24.872;2023-06-10T10:16:27;8.13;;;6.97;;
8572;SDS011;4324;42.012;24.872;2023-06-10T10:19:01;7.82;;;7.13;;
8572;SDS011;4324;42.012;24.872;2023-06-10T10:21:35;6.90;;;5.97;;
8572;SDS011;4324;42.012;24.872;2023-06-10T10:24:12;6.07;;;5.60;;
8572;SDS011;4324;42.012;24.872;2023-06-10T10:26:46;6.95;;;6.28;;
8572;SDS011;4324;42.012;24.872;2023-06-10T10:29:16;7.13;;;6.38;;
8572;SDS011;4324;42.012;24.872;2023-06-10T10:31:47;7.63;;;6.82;;
8572;SDS011;4324;42.012;24.872;2023-06-10T10:34:16;8.33;;;6.47;;
8572;SDS011;4324;42.012;24.872;2023-06-10T10:36:47;8.35;;;6.20;;
8572;SDS011;4324;42.012;24.872;2023-06-10T10:39:15;6.72;;;5.97;;
8572;SDS011;4324;42.012;24.872;2023-06-10T10:41:43;6.70;;;6.10;;
8572;SDS011;4324;42.012;24.872;2023-06-10T10:44:13;6.30;;;5.73;;
8572;SDS011;4324;42.012;24.872;2023-06-10T10:46:43;7.57;;;6.17;;
8572;SDS011;4324;42.012;24.872;2023-06-10T10:49:11;6.07;;;5.53;;
8572;SDS011;4324;42.012;24.872;2023-06-10T10:51:54;6.93;;;6.23;;
8572;SDS011;4324;42.012;24.872;2023-06-10T10:54:27;6.00;;;5.37;;
8572;SDS011;4324;42.012;24.872;2023-06-10T10:57:13;6.20;;;5.70;;
8572;SDS011;4324;42.012;24.872;2023-06-10T10:59:45;6.93;;;5.80;;
8572;SDS011;4324;42.012;24.872;2023-06-10T11:02:32;6.60;;;6.00;;
8572;SDS011;4324;42.012;24.872;2023-06-10T11:05:00;8.37;;;7.67;;
8572;SDS011;4324;42.012;24.872;2023-06-10T11:07:29;17.60;;;15.80;;
8572;SDS011;4324;42.012;24.872;2023-06-10T11:09:57;8.00;;;7.30;;
8572;SDS011;4324;42.012;24.872;2023-06-10T11:12:40;8.97;;;8.23;;
8572;SDS011;4324;42.012;24.872;2023-06-10T11:15:07;10.47;;;9.47;;
8572;SDS011;4324;42.012;24.872;2023-06-10T11:17:35;7.80;;;7.00;;
8572;SDS011;4324;42.012;24.872;2023-06-10T11:20:06;10.47;;;6.83;;
8572;SDS011;4324;42.012;24.872;2023-06-10T11:22:42;9.30;;;7.50;;
8572;SDS011;4324;42.012;24.872;2023-06-10T11:25:46;9.17;;;7.90;;
8572;SDS011;4324;42.012;24.872;2023-06-10T11:28:18;8.13;;;7.37;;
8572;SDS011;4324;42.012;24.872;2023-06-10T11:30:46;8.27;;;7.47;;
8572;SDS011;4324;42.012;24.872;2023-06-10T11:33:23;7.30;;;6.63;;
8572;SDS011;4324;42.012;24.872;2023-06-10T11:35:56;8.23;;;6.83;;
8572;SDS011;4324;42.012;24.872;2023-06-10T11:38:24;11.57;;;7.33;;
8572;SDS011;4324;42.012;24.872;2023-06-10T11:40:51;8.70;;;7.27;;
8572;SDS011;4324;42.012;24.872;2023-06-10T11:43:19;11.03;;;7.37;;
8572;SDS011;4324;42.012;24.872;2023-06-10T11:46:07;8.40;;;7.60;;
8572;SDS011;4324;42.012;24.872;2023-06-10T11:49:09;9.73;;;8.10;;
8572;SDS011;4324;42.012;24.872;2023-06-10T11:51:43;9.43;;;8.63;;
8572;SDS011;4324;42.012;24.872;2023-06-10T11:54:18;8.87;;;8.10;;
8572;SDS011;4324;42.012;24.872;2023-06-10T11:57:16;8.73;;;7.97;;
8572;SDS011;4324;42.012;24.872;2023-06-10T11:59:44;9.33;;;8.43;;
8572;SDS011;4324;42.012;24.872;2023-06-10T12:02:14;8.97;;;8.20;;
8572;SDS011;4324;42.012;24.872;2023-06-10T12:04:45;9.73;;;8.83;;
8572;SDS011;4324;42.012;24.872;2023-06-10T12:07:48;9.80;;;8.80;;
8572;SDS011;4324;42.012;24.872;2023-06-10T12:10:16;10.87;;;8.10;;
8572;SDS011;4324;42.012;24.872;2023-06-10T12:12:44;7.87;;;7.23;;
8572;SDS011;4324;42.012;24.872;2023-06-10T12:15:19;10.67;;;9.67;;
8572;SDS011;4324;42.012;24.872;2023-06-10T12:17:50;8.47;;;7.77;;
8572;SDS011;4324;42.012;24.872;2023-06-10T12:20:24;9.23;;;8.43;;
8572;SDS011;4324;42.012;24.872;2023-06-10T12:22:52;9.03;;;8.13;;
8572;SDS011;4324;42.012;24.872;2023-06-10T12:25:23;10.10;;;8.17;;
8572;SDS011;4324;42.012;24.872;2023-06-10T12:27:51;8.27;;;7.47;;
8572;SDS011;4324;42.012;24.872;2023-06-10T12:30:20;10.60;;;7.50;;
8572;SDS011;4324;42.012;24.872;2023-06-10T12:32:49;8.47;;;7.83;;
8572;SDS011;4324;42.012;24.872;2023-06-10T12:35:17;8.70;;;7.80;;
8572;SDS011;4324;42.012;24.872;2023-06-10T12:37:54;9.70;;;8.10;;
8572;SDS011;4324;42.012;24.872;2023-06-10T12:40:25;8.20;;;7.50;;
8572;SDS011;4324;42.012;24.872;2023-06-10T12:42:53;8.00;;;7.23;;
8572;SDS011;4324;42.012;24.872;2023-06-10T12:45:27;8.13;;;7.33;;
8572;SDS011;4324;42.012;24.872;2023-06-10T12:48:04;8.33;;;7.57;;
8572;SDS011;4324;42.012;24.872;2023-06-10T12:50:32;7.23;;;6.60;;
8572;SDS011;4324;42.012;24.872;2023-06-10T12:53:01;7.53;;;6.83;;
8572;SDS011;4324;42.012;24.872;2023-06-10T12:55:28;7.30;;;6.70;;
8572;SDS011;4324;42.012;24.872;2023-06-10T12:57:55;7.80;;;7.10;;
8572;SDS011;4324;42.012;24.872;2023-06-10T13:00:22;7.97;;;7.27;;
8572;SDS011;4324;42.012;24.872;2023-06-10T13:02:52;8.47;;;7.60;;
8572;SDS011;4324;42.012;24.872;2023-06-10T13:05:23;9.13;;;8.23;;
8572;SDS011;4324;42.012;24.872;2023-06-10T13:07:50;8.03;;;7.43;;
8572;SDS011;4324;42.012;24.872;2023-06-10T13:10:16;9.20;;;8.27;;
8572;SDS011;4324;42.012;24.872;2023-06-10T13:12:44;8.60;;;7.87;;
8572;SDS011;4324;42.012;24.872;2023-06-10T13:15:12;8.17;;;7.47;;
8572;SDS011;4324;42.012;24.872;2023-06-10T13:17:42;8.27;;;7.30;;
8572;SDS011;4324;42.012;24.872;2023-06-10T13:20:12;8.67;;;7.30;;
8572;SDS011;4324;42.012;24.872;2023-06-10T13:22:39;8.33;;;7.47;;
8572;SDS011;4324;42.012;24.872;2023-06-10T13:25:06;8.13;;;7.30;;
8572;SDS011;4324;42.012;24.872;2023-06-10T13:27:34;8.57;;;7.77;;
8572;SDS011;4324;42.012;24.872;2023-06-10T13:30:03;8.60;;;7.77;;
8572;SDS011;4324;42.012;24.872;2023-06-10T13:32:31;7.67;;;7.07;;
8572;SDS011;4324;42.012;24.872;2023-06-10T13:34:57;8.07;;;7.30;;
8572;SDS011;4324;42.012;24.872;2023-06-10T13:37:26;7.73;;;7.03;;
8572;SDS011;4324;42.012;24.872;2023-06-10T13:39:52;10.37;;;8.27;;
8572;SDS011;4324;42.012;24.872;2023-06-10T13:42:20;7.57;;;6.87;;
8572;SDS011;4324;42.012;24.872;2023-06-10T13:44:47;8.20;;;7.50;;
8572;SDS011;4324;42.012;24.872;2023-06-10T13:47:14;8.23;;;6.80;;
8572;SDS011;4324;42.012;24.872;2023-06-10T13:49:41;6.83;;;5.83;;
8572;SDS011;4324;42.012;24.872;2023-06-10T13:52:07;7.50;;;6.80;;
8572;SDS011;4324;42.012;24.872;2023-06-10T13:54:36;10.07;;;9.27;;
8572;SDS011;4324;42.012;24.872;2023-06-10T13:57:02;9.30;;;8.43;;
8572;SDS011;4324;42.012;24.872;2023-06-10T13:59:30;7.53;;;6.83;;
8572;SDS011;4324;42.012;24.872;2023-06-10T14:01:57;9.70;;;8.23;;
8572;SDS011;4324;42.012;24.872;2023-06-10T14:04:24;7.13;;;6.50;;
8572;SDS011;4324;42.012;24.872;2023-06-10T14:06:51;8.10;;;7.30;;
8572;SDS011;4324;42.012;24.872;2023-06-10T14:09:18;8.07;;;7.03;;
8572;SDS011;4324;42.012;24.872;2023-06-10T14:11:55;7.30;;;6.53;;
8572;SDS011;4324;42.012;24.872;2023-06-10T14:14:21;7.80;;;6.73;;
8572;SDS011;4324;42.012;24.872;2023-06-10T14:16:48;7.47;;;6.77;;
8572;SDS011;4324;42.012;24.872;2023-06-10T14:20:34;7.57;;;6.50;;
8572;SDS011;4324;42.012;24.872;2023-06-10T14:22:46;7.33;;;6.50;;
8572;SDS011;4324;42.012;24.872;2023-06-10T14:25:13;7.05;;;6.45;;
8572;SDS011;4324;42.012;24.872;2023-06-10T14:27:41;6.47;;;5.97;;
8572;SDS011;4324;42.012;24.872;2023-06-10T14:30:08;7.22;;;6.32;;
8572;SDS011;4324;42.012;24.872;2023-06-10T14:32:35;7.10;;;6.50;;
8572;SDS011;4324;42.012;24.872;2023-06-10T14:35:02;7.32;;;5.93;;
8572;SDS011;4324;42.012;24.872;2023-06-10T14:37:30;6.65;;;6.05;;
8572;SDS011;4324;42.012;24.872;2023-06-10T14:39:57;7.15;;;6.18;;
8572;SDS011;4324;42.012;24.872;2023-06-10T14:42:24;7.73;;;6.40;;
8572;SDS011;4324;42.012;24.872;2023-06-10T14:44:53;7.30;;;6.38;;
8572;SDS011;4324;42.012;24.872;2023-06-10T14:47:20;7.13;;;6.53;;
8572;SDS011;4324;42.012;24.872;2023-06-10T14:49:47;6.72;;;6.07;;
8572;SDS011;4324;42.012;24.872;2023-06-10T14:52:14;7.18;;;6.57;;
8572;SDS011;4324;42.012;24.872;2023-06-10T14:54:41;7.97;;;6.27;;
8572;SDS011;4324;42.012;24.872;2023-06-10T14:57:07;7.20;;;6.53;;
8572;SDS011;4324;42.012;24.872;2023-06-10T14:59:35;7.25;;;6.72;;
8572;SDS011;4324;42.012;24.872;2023-06-10T15:02:04;7.20;;;6.60;;
8572;SDS011;4324;42.012;24.872;2023-06-10T15:04:32;6.63;;;6.13;;
8572;SDS011;4324;42.012;24.872;2023-06-10T15:07:00;7.63;;;6.83;;
8572;SDS011;4324;42.012;24.872;2023-06-10T15:09:27;7.47;;;6.77;;
8572;SDS011;4324;42.012;24.872;2023-06-10T15:11:54;6.60;;;6.00;;
8572;SDS011;4324;42.012;24.872;2023-06-10T15:14:20;8.60;;;7.20;;
8572;SDS011;4324;42.012;24.872;2023-06-10T15:16:47;7.60;;;6.97;;
8572;SDS011;4324;42.012;24.872;2023-06-10T15:19:15;7.93;;;7.17;;
8572;SDS011;4324;42.012;24.872;2023-06-10T15:21:42;8.40;;;7.60;;
8572;SDS011;4324;42.012;24.872;2023-06-10T15:24:09;7.30;;;6.77;;
8572;SDS011;4324;42.012;24.872;2023-06-10T15:26:36;7.40;;;6.70;;